createdAt,value
2019-05-22T00:01:37.161Z,100207.83
2019-05-22T00:04:24.252Z,100212.63
2019-05-22T00:06:54.725Z,100213.68
2019-05-22T00:09:28.344Z,100209.66
2019-05-22T00:11:58.777Z,100216.09
2019-05-22T00:14:28.328Z,100216.09
2019-05-22T00:16:59.386Z,100216.31
2019-05-22T00:19:30.373Z,100212.27
2019-05-22T00:22:09.514Z,100211.72
2019-05-22T00:24:42.114Z,100214.39
2019-05-22T00:27:12.358Z,100212.55
2019-05-22T00:29:43.695Z,100215.91
2019-05-22T00:32:14.076Z,100224.00
2019-05-22T00:34:42.852Z,100223.41
2019-05-22T00:37:11.761Z,100216.98
2019-05-22T00:39:41.171Z,100225.20
2019-05-22T00:42:11.327Z,100231.02
2019-05-22T00:44:41.893Z,100229.89
2019-05-22T00:47:14.654Z,100231.52
2019-05-22T00:49:46.441Z,100226.13
2019-05-22T00:52:36.608Z,100231.72
2019-05-22T00:55:14.159Z,100230.92
2019-05-22T00:57:56.204Z,100228.75
2019-05-22T01:00:35.200Z,100236.23
2019-05-22T01:03:06.273Z,100232.47
2019-05-22T01:05:37.456Z,100236.44
2019-05-22T01:08:06.941Z,100230.52
2019-05-22T01:10:39.171Z,100236.64
2019-05-22T01:13:09.751Z,100237.73
2019-05-22T01:15:40.733Z,100237.97
2019-05-22T01:18:12.534Z,100239.56
2019-05-22T01:20:42.682Z,100240.89
2019-05-22T01:23:17.841Z,100244.90
2019-05-22T01:25:47.875Z,100244.07
2019-05-22T01:28:17.549Z,100244.56
2019-05-22T01:31:06.612Z,100243.02
2019-05-22T01:33:44.354Z,100245.14
2019-05-22T01:36:32.486Z,100247.82
2019-05-22T01:39:16.831Z,100244.77
2019-05-22T01:41:50.344Z,100243.69
2019-05-22T01:44:21.067Z,100243.64
2019-05-22T01:46:51.347Z,100248.42
2019-05-22T01:49:21.944Z,100246.84
2019-05-22T01:51:51.151Z,100246.06
2019-05-22T01:54:21.745Z,100246.27
2019-05-22T01:56:51.605Z,100249.23
2019-05-22T01:59:21.551Z,100247.84
2019-05-22T02:01:51.947Z,100256.39
2019-05-22T02:04:21.913Z,100243.84
2019-05-22T02:06:51.421Z,100246.51
2019-05-22T02:09:30.736Z,100255.34
2019-05-22T02:12:08.190Z,100262.53
2019-05-22T02:14:41.532Z,100260.94
2019-05-22T02:17:12.064Z,100262.27
2019-05-22T02:19:41.845Z,100266.98
2019-05-22T02:22:12.985Z,100268.02
2019-05-22T02:24:42.027Z,100270.44
2019-05-22T02:27:12.749Z,100269.05
2019-05-22T02:29:41.698Z,100270.92
2019-05-22T02:32:13.836Z,100278.59
2019-05-22T02:34:43.958Z,100286.36
2019-05-22T02:37:14.316Z,100280.47
2019-05-22T02:39:43.003Z,100286.36
2019-05-22T02:42:16.237Z,100286.07
2019-05-22T02:44:45.147Z,100290.40
2019-05-22T02:47:19.682Z,100289.28
2019-05-22T02:49:48.788Z,100293.81
2019-05-22T02:52:17.462Z,100293.16
2019-05-22T02:54:47.418Z,100303.66
2019-05-22T02:57:16.636Z,100296.72
2019-05-22T02:59:45.879Z,100304.91
2019-05-22T03:02:15.731Z,100297.36
2019-05-22T03:05:07.088Z,100299.23
2019-05-22T03:07:36.886Z,100303.23
2019-05-22T03:10:07.913Z,100325.12
2019-05-22T03:12:38.609Z,100313.38
2019-05-22T03:15:13.206Z,100320.34
2019-05-22T03:17:45.541Z,100312.33
2019-05-22T03:20:21.028Z,100314.77
2019-05-22T03:23:28.130Z,100311.85
2019-05-22T03:25:56.992Z,100319.86
2019-05-22T03:28:26.932Z,100326.72
2019-05-22T03:30:55.619Z,100321.91
2019-05-22T03:33:24.763Z,100320.34
2019-05-22T03:36:05.688Z,100325.37
2019-05-22T03:38:34.373Z,100328.05
2019-05-22T03:41:04.136Z,100327.67
2019-05-22T03:43:33.378Z,100331.73
2019-05-22T03:46:10.946Z,100334.11
2019-05-22T03:48:40.283Z,100340.22
2019-05-22T03:51:13.358Z,100337.81
2019-05-22T03:53:43.769Z,100346.05
2019-05-22T03:56:13.293Z,100341.94
2019-05-22T03:58:42.115Z,100344.50
2019-05-22T04:01:12.397Z,100346.60
2019-05-22T04:03:41.068Z,100355.64
2019-05-22T04:06:09.859Z,100366.07
2019-05-22T04:08:39.227Z,100362.84
2019-05-22T04:11:10.237Z,100364.80
2019-05-22T04:13:40.059Z,100359.82
2019-05-22T04:16:12.635Z,100367.34
2019-05-22T04:18:41.718Z,100368.06
2019-05-22T04:21:10.637Z,100360.36
2019-05-22T04:23:39.890Z,100364.00
2019-05-22T04:26:11.836Z,100365.92
2019-05-22T04:28:54.972Z,100374.67
2019-05-22T04:31:39.183Z,100366.48
2019-05-22T04:34:07.857Z,100366.25
2019-05-22T04:36:37.574Z,100367.52
2019-05-22T04:39:11.451Z,100371.52
2019-05-22T04:41:40.623Z,100372.37
2019-05-22T04:44:09.308Z,100365.59
2019-05-22T04:46:38.262Z,100373.83
2019-05-22T04:49:07.706Z,100373.58
2019-05-22T04:51:36.403Z,100372.55
2019-05-22T04:54:05.121Z,100384.31
2019-05-22T04:56:33.977Z,100385.53
2019-05-22T04:59:03.564Z,100385.47
2019-05-22T05:01:32.533Z,100391.96
2019-05-22T05:04:01.415Z,100396.87
2019-05-22T05:06:33.712Z,100386.37
2019-05-22T05:09:03.969Z,100408.88
2019-05-22T05:11:33.853Z,100392.67
2019-05-22T05:14:02.539Z,100397.64
2019-05-22T05:16:31.283Z,100392.33
2019-05-22T05:19:00.367Z,100394.20
2019-05-22T05:21:29.202Z,100399.90
2019-05-22T05:23:57.903Z,100397.53
2019-05-22T05:26:26.731Z,100396.61
2019-05-22T05:28:55.755Z,100397.53
2019-05-22T05:31:25.720Z,100408.32
2019-05-22T05:34:27.420Z,100411.64
2019-05-22T05:36:57.225Z,100408.98
2019-05-22T05:40:08.201Z,100403.64
2019-05-22T05:42:37.944Z,100406.69
2019-05-22T05:45:08.864Z,100408.28
2019-05-22T05:47:38.634Z,100412.88
2019-05-22T05:50:10.512Z,100416.10
2019-05-22T05:52:40.246Z,100413.23
2019-05-22T05:55:09.559Z,100419.49
2019-05-22T05:58:22.926Z,100419.47
2019-05-22T06:00:56.240Z,100424.83
2019-05-22T06:03:34.581Z,100419.47
2019-05-22T06:06:12.482Z,100426.08
2019-05-22T06:08:41.926Z,100425.80
2019-05-22T06:11:45.017Z,100427.11
2019-05-22T06:14:22.194Z,100421.13
2019-05-22T06:17:40.292Z,100438.70
2019-05-22T06:20:11.753Z,100444.22
2019-05-22T06:22:43.413Z,100442.88
2019-05-22T06:25:13.940Z,100444.33
2019-05-22T06:27:44.458Z,100451.17
2019-05-22T06:30:19.123Z,100446.78
2019-05-22T06:33:28.832Z,100451.76
2019-05-22T06:35:57.988Z,100446.89
2019-05-22T06:39:00.737Z,100463.99
2019-05-22T06:41:35.241Z,100463.59
2019-05-22T06:44:28.299Z,100469.44
2019-05-22T06:46:57.567Z,100467.28
2019-05-22T06:49:51.696Z,100467.17
2019-05-22T06:52:20.907Z,100459.70
2019-05-22T06:54:50.648Z,100471.99
2019-05-22T06:57:25.416Z,100471.13
2019-05-22T07:00:12.009Z,100471.17
2019-05-22T07:02:26.988Z,100476.53
2019-05-22T07:04:55.756Z,100474.44
2019-05-22T07:07:28.550Z,100474.27
2019-05-22T07:09:57.817Z,100484.57
2019-05-22T07:12:28.207Z,100486.33
2019-05-22T07:15:28.477Z,100494.13
2019-05-22T07:17:57.669Z,100488.20
2019-05-22T07:20:28.501Z,100494.78
2019-05-22T07:22:58.766Z,100497.05
2019-05-22T07:25:29.034Z,100499.72
2019-05-22T07:27:58.486Z,100503.54
2019-05-22T07:30:27.308Z,100505.63
2019-05-22T07:32:56.526Z,100515.69
2019-05-22T07:35:45.640Z,100517.36
2019-05-22T07:37:58.216Z,100508.52
2019-05-22T07:40:27.012Z,100520.99
2019-05-22T07:42:56.453Z,100513.84
2019-05-22T07:45:28.147Z,100514.68
2019-05-22T07:47:58.271Z,100530.89
2019-05-22T07:50:29.187Z,100518.86
2019-05-22T07:52:58.544Z,100519.09
2019-05-22T07:55:28.274Z,100522.86
2019-05-22T07:58:11.739Z,100525.86
2019-05-22T08:00:43.684Z,100518.48
2019-05-22T08:03:12.984Z,100536.51
2019-05-22T08:05:45.222Z,100537.47
2019-05-22T08:08:18.722Z,100537.16
2019-05-22T08:10:47.297Z,100540.35
2019-05-22T08:13:15.965Z,100544.83
2019-05-22T08:15:47.882Z,100544.23
2019-05-22T08:18:17.232Z,100545.91
2019-05-22T08:20:46.028Z,100550.14
2019-05-22T08:23:15.350Z,100548.34
2019-05-22T08:25:44.303Z,100553.58
2019-05-22T08:28:13.623Z,100558.22
2019-05-22T08:30:42.429Z,100557.30
2019-05-22T08:33:14.153Z,100564.76
2019-05-22T08:35:44.712Z,100570.36
2019-05-22T08:38:13.852Z,100578.55
2019-05-22T08:40:43.437Z,100574.61
2019-05-22T08:43:13.128Z,100570.53
2019-05-22T08:45:41.952Z,100576.16
2019-05-22T08:48:12.141Z,100581.27
2019-05-22T08:50:44.182Z,100583.87
2019-05-22T08:53:14.760Z,100588.02
2019-05-22T08:55:44.496Z,100585.42
2019-05-22T08:58:14.700Z,100590.98
2019-05-22T09:00:43.794Z,100592.95
2019-05-22T09:03:12.867Z,100604.41
2019-05-22T09:05:41.712Z,100600.39
2019-05-22T09:08:10.497Z,100598.98
2019-05-22T09:10:39.234Z,100610.36
2019-05-22T09:13:08.162Z,100606.28
2019-05-22T09:15:38.408Z,100618.50
2019-05-22T09:18:08.429Z,100612.30
2019-05-22T09:20:48.642Z,100615.11
2019-05-22T09:23:09.647Z,100624.36
2019-05-22T09:25:38.308Z,100618.96
2019-05-22T09:28:07.914Z,100619.75
2019-05-22T09:30:36.694Z,100619.45
2019-05-22T09:33:06.405Z,100617.80
2019-05-22T09:35:35.454Z,100633.69
2019-05-22T09:38:04.428Z,100626.15
2019-05-22T09:40:33.161Z,100629.61
2019-05-22T09:43:02.235Z,100630.17
2019-05-22T09:45:31.629Z,100634.25
2019-05-22T09:48:00.959Z,100644.46
2019-05-22T09:50:30.163Z,100629.87
2019-05-22T09:52:59.377Z,100630.80
2019-05-22T09:55:28.719Z,100630.53
2019-05-22T09:57:57.463Z,100633.23
2019-05-22T10:00:27.258Z,100635.56
2019-05-22T10:02:56.105Z,100633.73
2019-05-22T10:05:25.495Z,100637.69
2019-05-22T10:08:01.121Z,100647.80
2019-05-22T10:10:26.784Z,100632.58
2019-05-22T10:12:55.626Z,100632.48
2019-05-22T10:15:25.546Z,100638.92
2019-05-22T10:17:54.692Z,100639.34
2019-05-22T10:20:24.024Z,100652.02
2019-05-22T10:22:52.775Z,100645.38
2019-05-22T10:25:21.971Z,100646.62
2019-05-22T10:27:50.782Z,100649.92
2019-05-22T10:30:22.615Z,100648.38
2019-05-22T10:32:51.647Z,100645.14
2019-05-22T10:35:23.206Z,100649.56
2019-05-22T10:37:52.122Z,100659.27
2019-05-22T10:40:21.582Z,100657.61
2019-05-22T10:42:50.327Z,100665.67
2019-05-22T10:45:19.370Z,100669.40
2019-05-22T10:47:49.799Z,100671.99
2019-05-22T10:50:19.312Z,100667.77
2019-05-22T10:52:53.927Z,100670.45
2019-05-22T10:55:20.836Z,100669.80
2019-05-22T10:57:49.835Z,100675.89
2019-05-22T11:00:20.820Z,100686.78
2019-05-22T11:02:50.125Z,100683.50
2019-05-22T11:05:21.413Z,100686.17
2019-05-22T11:07:51.567Z,100685.64
2019-05-22T11:10:22.824Z,100694.18
2019-05-22T11:12:51.767Z,100683.77
2019-05-22T11:15:21.734Z,100687.42
2019-05-22T11:17:50.598Z,100685.88
2019-05-22T11:20:19.894Z,100689.65
2019-05-22T11:22:49.324Z,100693.74
2019-05-22T11:25:18.892Z,100690.73
2019-05-22T11:27:47.697Z,100688.41
2019-05-22T11:30:17.513Z,100684.41
2019-05-22T11:32:46.629Z,100698.32
2019-05-22T11:35:17.032Z,100697.34
2019-05-22T11:37:47.446Z,100684.18
2019-05-22T11:40:17.913Z,100693.53
2019-05-22T11:42:46.951Z,100683.20
2019-05-22T11:45:16.756Z,100688.73
2019-05-22T11:47:45.717Z,100691.54
2019-05-22T11:50:16.679Z,100687.69
2019-05-22T11:52:46.611Z,100683.38
2019-05-22T11:55:16.722Z,100689.03
2019-05-22T11:57:46.915Z,100691.58
2019-05-22T12:00:18.267Z,100689.97
2019-05-22T12:02:47.935Z,100690.42
2019-05-22T12:05:17.277Z,100691.80
2019-05-22T12:07:47.938Z,100691.75
2019-05-22T12:10:19.581Z,100690.41
2019-05-22T12:12:49.475Z,100689.22
2019-05-22T12:15:22.157Z,100695.89
2019-05-22T12:17:50.907Z,100693.38
2019-05-22T12:20:20.911Z,100699.55
2019-05-22T12:22:49.635Z,100690.08
2019-05-22T12:25:18.953Z,100689.75
2019-05-22T12:27:48.044Z,100687.06
2019-05-22T12:30:18.908Z,100692.09
2019-05-22T12:32:48.204Z,100696.26
2019-05-22T12:35:17.934Z,100687.03
2019-05-22T12:37:47.010Z,100690.73
2019-05-22T12:40:19.086Z,100686.56
2019-05-22T12:42:48.684Z,100687.13
2019-05-22T12:45:23.470Z,100688.49
2019-05-22T12:47:53.389Z,100684.98
2019-05-22T12:50:22.478Z,100684.52
2019-05-22T12:52:52.078Z,100689.41
2019-05-22T12:55:21.432Z,100684.20
2019-05-22T12:57:50.788Z,100685.06
2019-05-22T13:00:22.411Z,100684.36
2019-05-22T13:02:52.102Z,100686.89
2019-05-22T13:05:21.617Z,100688.98
2019-05-22T13:07:51.700Z,100683.91
2019-05-22T13:10:21.357Z,100678.69
2019-05-22T13:12:50.196Z,100679.80
2019-05-22T13:15:19.937Z,100680.83
2019-05-22T13:17:49.091Z,100678.88
2019-05-22T13:20:40.632Z,100676.87
2019-05-22T13:22:55.054Z,100689.27
2019-05-22T13:25:26.198Z,100681.72
2019-05-22T13:27:55.175Z,100685.17
2019-05-22T13:30:28.731Z,100683.05
2019-05-22T13:32:57.116Z,100671.72
2019-05-22T13:35:28.079Z,100669.78
2019-05-22T13:37:58.102Z,100684.88
2019-05-22T13:40:28.782Z,100680.00
2019-05-22T13:42:58.786Z,100676.80
2019-05-22T13:45:30.195Z,100681.05
2019-05-22T13:47:59.308Z,100666.38
2019-05-22T13:50:29.932Z,100679.69
2019-05-22T13:53:00.598Z,100664.61
2019-05-22T13:55:30.139Z,100664.61
2019-05-22T13:57:59.795Z,100671.80
2019-05-22T14:00:28.816Z,100682.36
2019-05-22T14:02:58.063Z,100677.67
2019-05-22T14:05:28.899Z,100682.70
2019-05-22T14:07:58.074Z,100680.08
2019-05-22T14:10:27.907Z,100680.77
2019-05-22T14:12:57.191Z,100685.34
2019-05-22T14:15:26.413Z,100685.20
2019-05-22T14:17:55.729Z,100693.25
2019-05-22T14:20:25.573Z,100687.80
2019-05-22T14:22:54.733Z,100692.69
2019-05-22T14:25:25.747Z,100687.91
2019-05-22T14:27:54.888Z,100687.63
2019-05-22T14:30:25.403Z,100683.38
2019-05-22T14:32:54.613Z,100684.95
2019-05-22T14:35:25.627Z,100684.33
2019-05-22T14:37:54.649Z,100683.30
2019-05-22T14:40:23.495Z,100689.98
2019-05-22T14:42:52.551Z,100686.31
2019-05-22T14:45:21.571Z,100693.80
2019-05-22T14:47:50.260Z,100691.40
2019-05-22T14:50:19.692Z,100692.16
2019-05-22T14:52:48.462Z,100689.36
2019-05-22T14:55:17.685Z,100679.29
2019-05-22T14:57:47.502Z,100673.75
2019-05-22T15:00:19.554Z,100677.34
2019-05-22T15:02:54.294Z,100685.47
2019-05-22T15:05:19.417Z,100691.24
2019-05-22T15:07:48.086Z,100680.50
2019-05-22T15:10:18.041Z,100681.90
2019-05-22T15:12:47.942Z,100674.69
2019-05-22T15:15:17.381Z,100674.42
2019-05-22T15:17:46.320Z,100676.59
2019-05-22T15:20:17.262Z,100674.75
2019-05-22T15:22:46.103Z,100675.27
2019-05-22T15:25:15.218Z,100672.77
2019-05-22T15:27:44.599Z,100671.17
2019-05-22T15:30:15.445Z,100665.27
2019-05-22T15:32:44.641Z,100674.85
2019-05-22T15:35:14.330Z,100675.02
2019-05-22T15:37:43.472Z,100676.27
2019-05-22T15:40:12.563Z,100670.82
2019-05-22T15:42:43.800Z,100669.38
2019-05-22T15:45:16.040Z,100671.22
2019-05-22T15:47:56.853Z,100665.89
2019-05-22T15:50:26.626Z,100671.84
2019-05-22T15:53:01.352Z,100671.84
2019-05-22T15:55:31.220Z,100667.63
2019-05-22T15:58:01.733Z,100656.45
2019-05-22T16:00:33.668Z,100654.66
2019-05-22T16:03:11.064Z,100650.09
2019-05-22T16:05:41.579Z,100648.78
2019-05-22T16:08:11.243Z,100654.03
2019-05-22T16:10:42.956Z,100656.95
2019-05-22T16:13:16.393Z,100661.41
2019-05-22T16:15:49.001Z,100659.09
2019-05-22T16:18:22.114Z,100659.46
2019-05-22T16:20:50.125Z,100660.48
2019-05-22T16:23:21.453Z,100646.70
2019-05-22T16:25:52.343Z,100654.59
2019-05-22T16:28:22.541Z,100646.92
2019-05-22T16:30:52.328Z,100643.97
2019-05-22T16:33:23.623Z,100634.39
2019-05-22T16:35:52.851Z,100636.61
2019-05-22T16:38:23.446Z,100628.17
2019-05-22T16:40:52.781Z,100626.98
2019-05-22T16:43:21.614Z,100624.53
2019-05-22T16:45:51.660Z,100623.74
2019-05-22T16:48:29.152Z,100623.03
2019-05-22T16:50:52.610Z,100625.21
2019-05-22T16:53:23.409Z,100622.66
2019-05-22T16:55:52.227Z,100618.24
2019-05-22T16:58:21.195Z,100614.59
2019-05-22T17:00:50.015Z,100618.10
2019-05-22T17:03:19.617Z,100628.08
2019-05-22T17:05:48.379Z,100617.88
2019-05-22T17:08:18.469Z,100621.62
2019-05-22T17:10:48.672Z,100620.14
2019-05-22T17:13:18.382Z,100624.33
2019-05-22T17:15:47.366Z,100610.94
2019-05-22T17:18:17.097Z,100614.98
2019-05-22T17:20:46.951Z,100613.12
2019-05-22T17:23:16.546Z,100613.45
2019-05-22T17:25:45.829Z,100612.08
2019-05-22T17:28:16.198Z,100609.70
2019-05-22T17:30:46.116Z,100605.64
2019-05-22T17:33:15.230Z,100613.08
2019-05-22T17:35:45.174Z,100615.22
2019-05-22T17:38:15.038Z,100608.78
2019-05-22T17:40:44.483Z,100608.26
2019-05-22T17:43:14.685Z,100606.52
2019-05-22T17:45:44.717Z,100604.92
2019-05-22T17:48:15.180Z,100614.69
2019-05-22T17:50:44.998Z,100618.47
2019-05-22T17:53:13.803Z,100618.69
2019-05-22T17:55:43.944Z,100621.23
2019-05-22T17:58:13.249Z,100617.78
2019-05-22T18:00:45.524Z,100619.87
2019-05-22T18:03:15.389Z,100618.69
2019-05-22T18:05:44.237Z,100629.27
2019-05-22T18:08:13.330Z,100637.70
2019-05-22T18:10:44.250Z,100637.70
2019-05-22T18:13:15.172Z,100640.33
2019-05-22T18:15:43.915Z,100642.33
2019-05-22T18:18:12.880Z,100636.36
2019-05-22T18:20:43.603Z,100632.98
2019-05-22T18:23:12.014Z,100634.53
2019-05-22T18:25:40.741Z,100636.94
2019-05-22T18:28:10.816Z,100642.69
2019-05-22T18:30:41.592Z,100634.56
2019-05-22T18:33:10.618Z,100636.29
2019-05-22T18:35:39.717Z,100636.84
2019-05-22T18:38:08.768Z,100635.58
2019-05-22T18:40:37.605Z,100640.87
2019-05-22T18:43:06.348Z,100650.16
2019-05-22T18:45:36.329Z,100653.56
2019-05-22T18:48:05.798Z,100650.52
2019-05-22T18:50:35.534Z,100658.89
2019-05-22T18:53:04.705Z,100656.16
2019-05-22T18:55:33.613Z,100663.86
2019-05-22T18:58:02.765Z,100659.85
2019-05-22T19:00:32.863Z,100663.88
2019-05-22T19:03:01.615Z,100663.81
2019-05-22T19:05:33.649Z,100668.98
2019-05-22T19:08:02.417Z,100667.71
2019-05-22T19:10:31.742Z,100668.06
2019-05-22T19:13:00.684Z,100670.38
2019-05-22T19:15:29.779Z,100662.12
2019-05-22T19:17:58.609Z,100667.87
2019-05-22T19:20:27.439Z,100672.83
2019-05-22T19:23:00.808Z,100669.39
2019-05-22T19:25:27.505Z,100674.70
2019-05-22T19:27:56.833Z,100680.62
2019-05-22T19:30:26.229Z,100686.70
2019-05-22T19:32:55.068Z,100682.25
2019-05-22T19:35:23.751Z,100683.78
2019-05-22T19:37:52.493Z,100688.23
2019-05-22T19:40:21.918Z,100690.14
2019-05-22T19:42:50.976Z,100686.22
2019-05-22T19:45:19.994Z,100687.55
2019-05-22T19:47:55.761Z,100689.03
2019-05-22T19:50:25.269Z,100687.77
2019-05-22T19:52:55.508Z,100691.84
2019-05-22T19:55:27.660Z,100691.42
2019-05-22T19:57:57.157Z,100689.91
2019-05-22T20:00:26.360Z,100702.68
2019-05-22T20:02:56.083Z,100703.94
2019-05-22T20:05:25.496Z,100700.29
2019-05-22T20:07:54.819Z,100707.91
2019-05-22T20:10:23.943Z,100710.73
2019-05-22T20:12:52.822Z,100708.14
2019-05-22T20:15:22.559Z,100710.36
2019-05-22T20:17:51.304Z,100715.78
2019-05-22T20:20:20.805Z,100708.41
2019-05-22T20:22:50.309Z,100712.40
2019-05-22T20:25:20.408Z,100713.12
2019-05-22T20:27:49.095Z,100714.87
2019-05-22T20:30:20.154Z,100719.47
2019-05-22T20:32:49.951Z,100719.25
2019-05-22T20:35:18.821Z,100720.88
2019-05-22T20:37:48.852Z,100723.03
2019-05-22T20:40:19.182Z,100721.86
2019-05-22T20:42:48.209Z,100723.40
2019-05-22T20:45:21.349Z,100731.19
2019-05-22T20:47:57.413Z,100729.13
2019-05-22T20:50:26.755Z,100735.75
2019-05-22T20:52:56.064Z,100732.28
2019-05-22T20:55:25.110Z,100731.06
2019-05-22T20:57:54.144Z,100733.40
2019-05-22T21:00:23.396Z,100734.83
2019-05-22T21:02:58.279Z,100741.07
2019-05-22T21:05:27.518Z,100740.74
2019-05-22T21:07:59.933Z,100749.44
2019-05-22T21:10:29.868Z,100748.94
2019-05-22T21:12:58.830Z,100746.44
2019-05-22T21:15:29.475Z,100752.02
2019-05-22T21:17:58.830Z,100756.06
2019-05-22T21:20:30.493Z,100753.48
2019-05-22T21:22:59.823Z,100751.73
2019-05-22T21:25:29.415Z,100748.39
2019-05-22T21:27:58.455Z,100753.62
2019-05-22T21:30:27.889Z,100754.16
2019-05-22T21:32:56.857Z,100751.89
2019-05-22T21:35:25.980Z,100755.64
2019-05-22T21:37:55.645Z,100757.26
2019-05-22T21:40:25.162Z,100763.19
2019-05-22T21:42:55.451Z,100755.06
2019-05-22T21:45:25.561Z,100769.16
2019-05-22T21:47:54.599Z,100765.80
2019-05-22T21:50:23.607Z,100755.58
2019-05-22T21:52:52.987Z,100763.72
2019-05-22T21:55:21.896Z,100764.08
2019-05-22T21:57:51.013Z,100762.41
2019-05-22T22:00:36.925Z,100764.66
2019-05-22T22:03:05.871Z,100772.12
2019-05-22T22:05:34.668Z,100764.56
2019-05-22T22:08:03.794Z,100762.84
2019-05-22T22:10:32.487Z,100765.52
2019-05-22T22:13:01.596Z,100766.94
2019-05-22T22:15:31.591Z,100778.70
2019-05-22T22:18:00.276Z,100780.79
2019-05-22T22:20:28.977Z,100777.59
2019-05-22T22:22:58.214Z,100782.09
2019-05-22T22:25:27.505Z,100785.71
2019-05-22T22:27:56.624Z,100782.78
2019-05-22T22:30:29.987Z,100789.92
2019-05-22T22:33:01.150Z,100784.39
2019-05-22T22:35:31.512Z,100787.00
2019-05-22T22:38:00.674Z,100787.44
2019-05-22T22:40:29.793Z,100784.62
2019-05-22T22:43:00.760Z,100782.95
2019-05-22T22:45:39.796Z,100786.84
2019-05-22T22:48:09.614Z,100792.14
2019-05-22T22:50:40.309Z,100788.05
2019-05-22T22:53:10.452Z,100794.77
2019-05-22T22:55:40.358Z,100795.72
2019-05-22T22:58:17.353Z,100794.25
2019-05-22T23:00:43.347Z,100801.18
2019-05-22T23:03:13.604Z,100797.81
2019-05-22T23:05:44.520Z,100800.26
2019-05-22T23:08:16.903Z,100807.80
2019-05-22T23:10:46.187Z,100807.88
2019-05-22T23:13:15.985Z,100807.88
2019-05-22T23:15:46.407Z,100809.20
2019-05-22T23:18:29.965Z,100817.20
2019-05-22T23:20:57.283Z,100814.22
2019-05-22T23:23:25.259Z,100817.35
2019-05-22T23:25:54.218Z,100816.06
2019-05-22T23:28:34.129Z,100815.38
2019-05-22T23:30:54.580Z,100813.34
2019-05-22T23:33:23.784Z,100812.78
2019-05-22T23:35:53.626Z,100813.45
2019-05-22T23:38:23.047Z,100812.83
2019-05-22T23:40:53.247Z,100808.80
2019-05-22T23:43:22.442Z,100813.71
2019-05-22T23:45:51.600Z,100808.68
2019-05-22T23:48:20.682Z,100813.68
2019-05-22T23:50:49.396Z,100812.84
2019-05-22T23:53:18.607Z,100816.61
2019-05-22T23:55:48.794Z,100809.00
2019-05-22T23:58:20.145Z,100811.78
